sensor_id;sensor_type;location;lat;lon;timestamp;P1;durP1;ratioP1;P2;durP2;ratioP2
59109;SDS011;44895;47.438;18.978;2024-03-06T00:00:11;26.55;;;17.35;;
59109;SDS011;44895;47.438;18.978;2024-03-06T00:03:15;26.63;;;17.77;;
59109;SDS011;44895;47.438;18.978;2024-03-06T00:06:19;25.48;;;17.80;;
59109;SDS011;44895;47.438;18.978;2024-03-06T00:09:23;31.88;;;19.45;;
59109;SDS011;44895;47.438;18.978;2024-03-06T00:12:30;29.77;;;20.13;;
59109;SDS011;44895;47.438;18.978;2024-03-06T00:15:34;31.58;;;19.52;;
59109;SDS011;44895;47.438;18.978;2024-03-06T00:18:38;24.73;;;17.67;;
59109;SDS011;44895;47.438;18.978;2024-03-06T00:21:41;28.02;;;17.60;;
59109;SDS011;44895;47.438;18.978;2024-03-06T00:24:45;24.08;;;16.55;;
59109;SDS011;44895;47.438;18.978;2024-03-06T00:27:50;25.58;;;17.52;;
59109;SDS011;44895;47.438;18.978;2024-03-06T00:30:54;27.50;;;16.80;;
59109;SDS011;44895;47.438;18.978;2024-03-06T00:33:58;30.15;;;20.42;;
59109;SDS011;44895;47.438;18.978;2024-03-06T00:37:03;24.52;;;16.48;;
59109;SDS011;44895;47.438;18.978;2024-03-06T00:40:06;29.33;;;19.52;;
59109;SDS011;44895;47.438;18.978;2024-03-06T00:43:10;28.13;;;17.70;;
59109;SDS011;44895;47.438;18.978;2024-03-06T00:46:14;29.52;;;19.00;;
59109;SDS011;44895;47.438;18.978;2024-03-06T00:49:18;27.40;;;17.88;;
59109;SDS011;44895;47.438;18.978;2024-03-06T00:52:22;31.02;;;19.25;;
59109;SDS011;44895;47.438;18.978;2024-03-06T00:55:26;27.15;;;17.30;;
59109;SDS011;44895;47.438;18.978;2024-03-06T00:58:29;30.05;;;17.95;;
59109;SDS011;44895;47.438;18.978;2024-03-06T01:01:33;25.30;;;15.88;;
59109;SDS011;44895;47.438;18.978;2024-03-06T01:04:37;22.92;;;16.73;;
59109;SDS011;44895;47.438;18.978;2024-03-06T01:07:41;30.15;;;17.83;;
59109;SDS011;44895;47.438;18.978;2024-03-06T01:10:44;26.02;;;17.92;;
59109;SDS011;44895;47.438;18.978;2024-03-06T01:13:48;25.05;;;16.73;;
59109;SDS011;44895;47.438;18.978;2024-03-06T01:16:52;31.23;;;18.85;;
59109;SDS011;44895;47.438;18.978;2024-03-06T01:19:56;27.98;;;17.67;;
59109;SDS011;44895;47.438;18.978;2024-03-06T01:22:59;23.48;;;14.38;;
59109;SDS011;44895;47.438;18.978;2024-03-06T01:26:04;25.33;;;16.20;;
59109;SDS011;44895;47.438;18.978;2024-03-06T01:29:07;24.42;;;17.10;;
59109;SDS011;44895;47.438;18.978;2024-03-06T01:32:11;22.33;;;14.85;;
59109;SDS011;44895;47.438;18.978;2024-03-06T01:35:16;23.30;;;14.75;;
59109;SDS011;44895;47.438;18.978;2024-03-06T01:38:19;22.38;;;15.52;;
59109;SDS011;44895;47.438;18.978;2024-03-06T01:41:23;20.85;;;14.23;;
59109;SDS011;44895;47.438;18.978;2024-03-06T01:44:28;24.13;;;15.25;;
59109;SDS011;44895;47.438;18.978;2024-03-06T01:47:31;21.00;;;14.25;;
59109;SDS011;44895;47.438;18.978;2024-03-06T01:50:35;23.17;;;16.95;;
59109;SDS011;44895;47.438;18.978;2024-03-06T01:53:39;23.65;;;15.10;;
59109;SDS011;44895;47.438;18.978;2024-03-06T01:56:46;22.17;;;14.45;;
59109;SDS011;44895;47.438;18.978;2024-03-06T01:59:53;23.13;;;15.40;;
59109;SDS011;44895;47.438;18.978;2024-03-06T02:02:57;21.45;;;15.20;;
59109;SDS011;44895;47.438;18.978;2024-03-06T02:06:00;24.25;;;14.90;;
59109;SDS011;44895;47.438;18.978;2024-03-06T02:09:05;23.35;;;14.52;;
59109;SDS011;44895;47.438;18.978;2024-03-06T02:12:10;21.52;;;12.52;;
59109;SDS011;44895;47.438;18.978;2024-03-06T02:15:14;30.10;;;19.05;;
59109;SDS011;44895;47.438;18.978;2024-03-06T02:18:18;24.48;;;17.35;;
59109;SDS011;44895;47.438;18.978;2024-03-06T02:21:22;27.05;;;16.67;;
59109;SDS011;44895;47.438;18.978;2024-03-06T02:24:26;24.52;;;16.40;;
59109;SDS011;44895;47.438;18.978;2024-03-06T02:27:30;28.98;;;18.02;;
59109;SDS011;44895;47.438;18.978;2024-03-06T02:30:34;25.02;;;16.67;;
59109;SDS011;44895;47.438;18.978;2024-03-06T02:33:41;28.08;;;18.60;;
59109;SDS011;44895;47.438;18.978;2024-03-06T02:36:45;24.10;;;14.98;;
59109;SDS011;44895;47.438;18.978;2024-03-06T02:39:49;26.95;;;17.08;;
59109;SDS011;44895;47.438;18.978;2024-03-06T02:42:53;28.42;;;18.80;;
59109;SDS011;44895;47.438;18.978;2024-03-06T02:45:56;26.67;;;18.02;;
59109;SDS011;44895;47.438;18.978;2024-03-06T02:49:00;26.27;;;17.95;;
59109;SDS011;44895;47.438;18.978;2024-03-06T02:52:04;28.02;;;17.42;;
59109;SDS011;44895;47.438;18.978;2024-03-06T02:55:08;25.00;;;18.20;;
59109;SDS011;44895;47.438;18.978;2024-03-06T02:58:12;26.17;;;17.27;;
59109;SDS011;44895;47.438;18.978;2024-03-06T03:01:16;30.95;;;19.33;;
59109;SDS011;44895;47.438;18.978;2024-03-06T03:04:20;31.67;;;18.67;;
59109;SDS011;44895;47.438;18.978;2024-03-06T03:07:24;28.92;;;18.65;;
59109;SDS011;44895;47.438;18.978;2024-03-06T03:10:28;31.58;;;17.92;;
59109;SDS011;44895;47.438;18.978;2024-03-06T03:13:32;26.65;;;18.67;;
59109;SDS011;44895;47.438;18.978;2024-03-06T03:16:35;32.97;;;18.90;;
59109;SDS011;44895;47.438;18.978;2024-03-06T03:19:39;54.78;;;18.98;;
59109;SDS011;44895;47.438;18.978;2024-03-06T03:22:43;31.63;;;18.40;;
59109;SDS011;44895;47.438;18.978;2024-03-06T03:25:47;30.88;;;17.92;;
59109;SDS011;44895;47.438;18.978;2024-03-06T03:28:52;30.30;;;20.38;;
59109;SDS011;44895;47.438;18.978;2024-03-06T03:31:56;25.27;;;17.08;;
59109;SDS011;44895;47.438;18.978;2024-03-06T03:34:59;31.08;;;17.80;;
59109;SDS011;44895;47.438;18.978;2024-03-06T03:38:03;29.48;;;19.13;;
59109;SDS011;44895;47.438;18.978;2024-03-06T03:41:08;27.95;;;18.55;;
59109;SDS011;44895;47.438;18.978;2024-03-06T03:44:16;33.25;;;18.02;;
59109;SDS011;44895;47.438;18.978;2024-03-06T03:47:22;27.83;;;15.68;;
59109;SDS011;44895;47.438;18.978;2024-03-06T03:50:25;37.35;;;20.83;;
59109;SDS011;44895;47.438;18.978;2024-03-06T03:53:29;32.70;;;19.83;;
59109;SDS011;44895;47.438;18.978;2024-03-06T03:56:33;40.60;;;23.85;;
59109;SDS011;44895;47.438;18.978;2024-03-06T03:59:37;33.92;;;21.17;;
59109;SDS011;44895;47.438;18.978;2024-03-06T04:02:42;34.55;;;22.67;;
59109;SDS011;44895;47.438;18.978;2024-03-06T04:05:46;35.58;;;21.75;;
59109;SDS011;44895;47.438;18.978;2024-03-06T04:08:51;41.63;;;21.42;;
59109;SDS011;44895;47.438;18.978;2024-03-06T04:11:54;36.83;;;24.65;;
59109;SDS011;44895;47.438;18.978;2024-03-06T04:14:58;34.72;;;21.38;;
59109;SDS011;44895;47.438;18.978;2024-03-06T04:18:02;35.13;;;21.58;;
59109;SDS011;44895;47.438;18.978;2024-03-06T04:21:06;34.90;;;23.38;;
59109;SDS011;44895;47.438;18.978;2024-03-06T04:24:10;43.08;;;25.70;;
59109;SDS011;44895;47.438;18.978;2024-03-06T04:27:14;37.63;;;25.02;;
59109;SDS011;44895;47.438;18.978;2024-03-06T04:30:19;45.97;;;26.38;;
59109;SDS011;44895;47.438;18.978;2024-03-06T04:33:22;40.55;;;25.70;;
59109;SDS011;44895;47.438;18.978;2024-03-06T04:36:26;36.33;;;27.00;;
59109;SDS011;44895;47.438;18.978;2024-03-06T04:39:31;41.67;;;28.88;;
59109;SDS011;44895;47.438;18.978;2024-03-06T04:42:36;48.67;;;26.90;;
59109;SDS011;44895;47.438;18.978;2024-03-06T04:45:39;42.47;;;27.02;;
59109;SDS011;44895;47.438;18.978;2024-03-06T04:48:43;47.10;;;28.17;;
59109;SDS011;44895;47.438;18.978;2024-03-06T04:51:47;39.42;;;26.83;;
59109;SDS011;44895;47.438;18.978;2024-03-06T04:54:51;38.40;;;25.98;;
59109;SDS011;44895;47.438;18.978;2024-03-06T04:57:56;42.10;;;27.17;;
59109;SDS011;44895;47.438;18.978;2024-03-06T05:00:59;40.40;;;24.52;;
59109;SDS011;44895;47.438;18.978;2024-03-06T05:04:03;37.42;;;23.60;;
59109;SDS011;44895;47.438;18.978;2024-03-06T05:07:07;43.83;;;27.27;;
59109;SDS011;44895;47.438;18.978;2024-03-06T05:10:11;43.22;;;26.63;;
59109;SDS011;44895;47.438;18.978;2024-03-06T05:13:15;34.58;;;24.92;;
59109;SDS011;44895;47.438;18.978;2024-03-06T05:16:18;40.63;;;23.83;;
59109;SDS011;44895;47.438;18.978;2024-03-06T05:19:22;38.50;;;26.02;;
59109;SDS011;44895;47.438;18.978;2024-03-06T05:22:26;38.75;;;26.52;;
59109;SDS011;44895;47.438;18.978;2024-03-06T05:25:29;47.60;;;25.73;;
59109;SDS011;44895;47.438;18.978;2024-03-06T05:28:33;31.08;;;22.63;;
59109;SDS011;44895;47.438;18.978;2024-03-06T05:31:37;44.63;;;28.85;;
59109;SDS011;44895;47.438;18.978;2024-03-06T05:34:41;38.30;;;25.38;;
59109;SDS011;44895;47.438;18.978;2024-03-06T05:37:44;37.42;;;24.17;;
59109;SDS011;44895;47.438;18.978;2024-03-06T05:40:48;39.90;;;23.52;;
59109;SDS011;44895;47.438;18.978;2024-03-06T05:43:52;38.65;;;23.45;;
59109;SDS011;44895;47.438;18.978;2024-03-06T05:46:56;43.30;;;24.20;;
59109;SDS011;44895;47.438;18.978;2024-03-06T05:50:01;45.85;;;26.70;;
59109;SDS011;44895;47.438;18.978;2024-03-06T05:53:07;44.15;;;25.40;;
59109;SDS011;44895;47.438;18.978;2024-03-06T05:56:11;50.85;;;28.35;;
59109;SDS011;44895;47.438;18.978;2024-03-06T05:59:15;36.60;;;26.00;;
59109;SDS011;44895;47.438;18.978;2024-03-06T06:02:19;36.22;;;24.42;;
59109;SDS011;44895;47.438;18.978;2024-03-06T06:05:24;39.90;;;23.33;;
59109;SDS011;44895;47.438;18.978;2024-03-06T06:08:27;39.72;;;22.50;;
59109;SDS011;44895;47.438;18.978;2024-03-06T06:11:31;42.65;;;25.73;;
59109;SDS011;44895;47.438;18.978;2024-03-06T06:14:36;40.95;;;23.30;;
59109;SDS011;44895;47.438;18.978;2024-03-06T06:17:40;43.53;;;23.95;;
59109;SDS011;44895;47.438;18.978;2024-03-06T06:20:46;37.20;;;26.20;;
59109;SDS011;44895;47.438;18.978;2024-03-06T06:23:50;37.40;;;23.38;;
59109;SDS011;44895;47.438;18.978;2024-03-06T06:26:54;35.95;;;24.42;;
59109;SDS011;44895;47.438;18.978;2024-03-06T06:29:58;51.75;;;26.85;;
59109;SDS011;44895;47.438;18.978;2024-03-06T06:33:02;43.40;;;26.02;;
59109;SDS011;44895;47.438;18.978;2024-03-06T06:36:06;39.65;;;23.95;;
59109;SDS011;44895;47.438;18.978;2024-03-06T06:39:10;37.53;;;25.20;;
59109;SDS011;44895;47.438;18.978;2024-03-06T06:42:15;38.65;;;22.30;;
59109;SDS011;44895;47.438;18.978;2024-03-06T06:45:19;38.75;;;23.45;;
59109;SDS011;44895;47.438;18.978;2024-03-06T06:48:24;32.67;;;24.83;;
59109;SDS011;44895;47.438;18.978;2024-03-06T06:51:28;35.20;;;25.60;;
59109;SDS011;44895;47.438;18.978;2024-03-06T06:54:32;31.50;;;22.48;;
59109;SDS011;44895;47.438;18.978;2024-03-06T06:57:35;38.75;;;27.05;;
59109;SDS011;44895;47.438;18.978;2024-03-06T07:00:39;33.28;;;24.58;;
59109;SDS011;44895;47.438;18.978;2024-03-06T07:03:45;31.30;;;21.20;;
59109;SDS011;44895;47.438;18.978;2024-03-06T07:06:48;38.85;;;25.55;;
59109;SDS011;44895;47.438;18.978;2024-03-06T07:09:52;29.88;;;21.40;;
59109;SDS011;44895;47.438;18.978;2024-03-06T07:12:56;32.13;;;23.92;;
59109;SDS011;44895;47.438;18.978;2024-03-06T07:16:02;26.13;;;21.05;;
59109;SDS011;44895;47.438;18.978;2024-03-06T07:19:06;33.78;;;21.92;;
59109;SDS011;44895;47.438;18.978;2024-03-06T07:22:10;33.28;;;23.00;;
59109;SDS011;44895;47.438;18.978;2024-03-06T07:25:14;35.05;;;22.88;;
59109;SDS011;44895;47.438;18.978;2024-03-06T07:28:18;32.10;;;21.80;;
59109;SDS011;44895;47.438;18.978;2024-03-06T07:31:22;29.35;;;21.73;;
59109;SDS011;44895;47.438;18.978;2024-03-06T07:34:26;33.92;;;23.73;;
59109;SDS011;44895;47.438;18.978;2024-03-06T07:37:30;31.15;;;21.75;;
59109;SDS011;44895;47.438;18.978;2024-03-06T07:40:33;37.33;;;22.80;;
59109;SDS011;44895;47.438;18.978;2024-03-06T07:43:37;31.25;;;21.23;;
59109;SDS011;44895;47.438;18.978;2024-03-06T07:46:41;31.60;;;22.15;;
59109;SDS011;44895;47.438;18.978;2024-03-06T07:49:45;30.95;;;22.58;;
59109;SDS011;44895;47.438;18.978;2024-03-06T07:52:49;32.28;;;21.73;;
59109;SDS011;44895;47.438;18.978;2024-03-06T07:55:52;29.83;;;20.48;;
59109;SDS011;44895;47.438;18.978;2024-03-06T07:58:56;31.02;;;20.52;;
59109;SDS011;44895;47.438;18.978;2024-03-06T08:02:00;31.48;;;20.35;;
59109;SDS011;44895;47.438;18.978;2024-03-06T08:05:04;30.42;;;20.92;;
59109;SDS011;44895;47.438;18.978;2024-03-06T08:08:08;28.95;;;19.00;;
59109;SDS011;44895;47.438;18.978;2024-03-06T08:11:13;31.63;;;20.60;;
59109;SDS011;44895;47.438;18.978;2024-03-06T08:14:17;33.25;;;22.38;;
59109;SDS011;44895;47.438;18.978;2024-03-06T08:17:20;31.85;;;23.65;;
59109;SDS011;44895;47.438;18.978;2024-03-06T08:20:24;29.35;;;19.42;;
59109;SDS011;44895;47.438;18.978;2024-03-06T08:23:28;34.97;;;23.20;;
59109;SDS011;44895;47.438;18.978;2024-03-06T08:26:32;28.95;;;20.65;;
59109;SDS011;44895;47.438;18.978;2024-03-06T08:29:36;29.52;;;19.73;;
59109;SDS011;44895;47.438;18.978;2024-03-06T08:32:39;28.80;;;20.85;;
59109;SDS011;44895;47.438;18.978;2024-03-06T08:35:43;32.20;;;19.10;;
59109;SDS011;44895;47.438;18.978;2024-03-06T08:38:48;34.25;;;19.80;;
59109;SDS011;44895;47.438;18.978;2024-03-06T08:41:52;28.23;;;20.40;;
59109;SDS011;44895;47.438;18.978;2024-03-06T08:44:56;22.60;;;14.45;;
59109;SDS011;44895;47.438;18.978;2024-03-06T08:48:00;22.92;;;17.60;;
59109;SDS011;44895;47.438;18.978;2024-03-06T08:51:04;22.33;;;16.13;;
59109;SDS011;44895;47.438;18.978;2024-03-06T08:54:14;19.23;;;14.30;;
59109;SDS011;44895;47.438;18.978;2024-03-06T08:57:17;22.00;;;14.35;;
59109;SDS011;44895;47.438;18.978;2024-03-06T09:00:24;21.45;;;13.35;;
59109;SDS011;44895;47.438;18.978;2024-03-06T09:03:29;18.65;;;12.45;;
59109;SDS011;44895;47.438;18.978;2024-03-06T09:06:33;16.58;;;10.65;;
59109;SDS011;44895;47.438;18.978;2024-03-06T09:09:37;18.58;;;10.38;;
59109;SDS011;44895;47.438;18.978;2024-03-06T09:12:41;17.13;;;12.10;;
59109;SDS011;44895;47.438;18.978;2024-03-06T09:15:45;18.45;;;11.38;;
59109;SDS011;44895;47.438;18.978;2024-03-06T09:18:49;26.13;;;12.38;;
59109;SDS011;44895;47.438;18.978;2024-03-06T09:21:53;15.18;;;11.77;;
59109;SDS011;44895;47.438;18.978;2024-03-06T09:24:56;17.20;;;12.23;;
59109;SDS011;44895;47.438;18.978;2024-03-06T09:28:00;18.10;;;10.27;;
59109;SDS011;44895;47.438;18.978;2024-03-06T09:31:07;17.52;;;11.68;;
59109;SDS011;44895;47.438;18.978;2024-03-06T09:34:11;16.77;;;11.10;;
59109;SDS011;44895;47.438;18.978;2024-03-06T09:37:15;14.65;;;9.77;;
59109;SDS011;44895;47.438;18.978;2024-03-06T09:40:19;16.40;;;10.65;;
59109;SDS011;44895;47.438;18.978;2024-03-06T09:43:25;14.57;;;10.10;;
59109;SDS011;44895;47.438;18.978;2024-03-06T09:46:29;13.23;;;9.15;;
59109;SDS011;44895;47.438;18.978;2024-03-06T09:49:32;16.27;;;8.95;;
59109;SDS011;44895;47.438;18.978;2024-03-06T09:52:37;15.00;;;10.43;;
59109;SDS011;44895;47.438;18.978;2024-03-06T09:55:44;16.20;;;10.20;;
59109;SDS011;44895;47.438;18.978;2024-03-06T09:58:49;16.48;;;11.38;;
59109;SDS011;44895;47.438;18.978;2024-03-06T10:01:55;17.80;;;10.77;;
59109;SDS011;44895;47.438;18.978;2024-03-06T10:04:59;18.75;;;10.18;;
59109;SDS011;44895;47.438;18.978;2024-03-06T10:08:04;16.83;;;10.95;;
59109;SDS011;44895;47.438;18.978;2024-03-06T10:11:08;16.83;;;10.70;;
59109;SDS011;44895;47.438;18.978;2024-03-06T10:14:12;14.95;;;10.48;;
59109;SDS011;44895;47.438;18.978;2024-03-06T10:17:20;15.88;;;10.43;;
59109;SDS011;44895;47.438;18.978;2024-03-06T10:20:29;21.83;;;11.15;;
59109;SDS011;44895;47.438;18.978;2024-03-06T10:23:38;15.80;;;10.38;;
59109;SDS011;44895;47.438;18.978;2024-03-06T10:26:42;15.73;;;10.68;;
59109;SDS011;44895;47.438;18.978;2024-03-06T10:30:00;13.00;;;9.25;;
59109;SDS011;44895;47.438;18.978;2024-03-06T10:36:11;15.20;;;9.53;;
59109;SDS011;44895;47.438;18.978;2024-03-06T10:39:14;17.65;;;10.43;;
59109;SDS011;44895;47.438;18.978;2024-03-06T10:42:22;19.70;;;11.13;;
59109;SDS011;44895;47.438;18.978;2024-03-06T10:48:49;17.10;;;9.77;;
59109;SDS011;44895;47.438;18.978;2024-03-06T10:55:03;19.30;;;11.02;;
59109;SDS011;44895;47.438;18.978;2024-03-06T10:58:08;19.95;;;11.00;;
59109;SDS011;44895;47.438;18.978;2024-03-06T11:01:11;15.82;;;11.52;;
59109;SDS011;44895;47.438;18.978;2024-03-06T11:04:15;17.85;;;11.73;;
59109;SDS011;44895;47.438;18.978;2024-03-06T11:07:20;17.55;;;11.50;;
59109;SDS011;44895;47.438;18.978;2024-03-06T11:10:31;14.68;;;10.23;;
59109;SDS011;44895;47.438;18.978;2024-03-06T11:13:35;16.85;;;10.75;;
59109;SDS011;44895;47.438;18.978;2024-03-06T11:16:58;19.52;;;10.07;;
59109;SDS011;44895;47.438;18.978;2024-03-06T11:23:12;18.77;;;11.43;;
59109;SDS011;44895;47.438;18.978;2024-03-06T11:26:16;17.00;;;9.98;;
59109;SDS011;44895;47.438;18.978;2024-03-06T11:29:23;14.57;;;9.15;;
59109;SDS011;44895;47.438;18.978;2024-03-06T11:32:28;14.30;;;9.95;;
59109;SDS011;44895;47.438;18.978;2024-03-06T11:35:32;15.43;;;9.38;;
59109;SDS011;44895;47.438;18.978;2024-03-06T11:38:39;15.93;;;9.68;;
59109;SDS011;44895;47.438;18.978;2024-03-06T11:44:54;12.88;;;9.43;;
59109;SDS011;44895;47.438;18.978;2024-03-06T11:48:02;15.60;;;8.88;;
59109;SDS011;44895;47.438;18.978;2024-03-06T11:51:06;14.50;;;9.45;;
59109;SDS011;44895;47.438;18.978;2024-03-06T11:54:09;12.52;;;8.75;;
59109;SDS011;44895;47.438;18.978;2024-03-06T11:57:13;13.98;;;9.25;;
59109;SDS011;44895;47.438;18.978;2024-03-06T12:00:23;14.85;;;8.00;;
59109;SDS011;44895;47.438;18.978;2024-03-06T12:06:32;16.65;;;9.05;;
59109;SDS011;44895;47.438;18.978;2024-03-06T12:09:37;15.13;;;9.18;;
59109;SDS011;44895;47.438;18.978;2024-03-06T12:13:01;14.00;;;10.85;;
59109;SDS011;44895;47.438;18.978;2024-03-06T12:16:06;16.73;;;8.85;;
59109;SDS011;44895;47.438;18.978;2024-03-06T12:19:13;13.67;;;9.37;;
59109;SDS011;44895;47.438;18.978;2024-03-06T12:22:17;16.27;;;9.57;;
59109;SDS011;44895;47.438;18.978;2024-03-06T12:25:23;14.27;;;9.73;;
59109;SDS011;44895;47.438;18.978;2024-03-06T12:28:29;16.37;;;8.37;;
59109;SDS011;44895;47.438;18.978;2024-03-06T12:31:34;21.60;;;9.50;;
59109;SDS011;44895;47.438;18.978;2024-03-06T12:34:39;13.82;;;9.43;;
59109;SDS011;44895;47.438;18.978;2024-03-06T12:37:43;14.93;;;10.85;;
59109;SDS011;44895;47.438;18.978;2024-03-06T12:40:47;19.40;;;9.93;;
59109;SDS011;44895;47.438;18.978;2024-03-06T12:43:51;14.10;;;9.13;;
59109;SDS011;44895;47.438;18.978;2024-03-06T12:46:55;14.23;;;8.65;;
59109;SDS011;44895;47.438;18.978;2024-03-06T12:49:58;16.60;;;9.40;;
59109;SDS011;44895;47.438;18.978;2024-03-06T12:53:02;15.80;;;10.35;;
59109;SDS011;44895;47.438;18.978;2024-03-06T12:56:07;14.57;;;8.30;;
59109;SDS011;44895;47.438;18.978;2024-03-06T12:59:11;13.15;;;8.80;;
59109;SDS011;44895;47.438;18.978;2024-03-06T13:02:15;16.85;;;9.57;;
59109;SDS011;44895;47.438;18.978;2024-03-06T13:05:19;23.58;;;9.93;;
59109;SDS011;44895;47.438;18.978;2024-03-06T13:08:22;13.15;;;9.32;;
59109;SDS011;44895;47.438;18.978;2024-03-06T13:11:26;22.58;;;10.55;;
59109;SDS011;44895;47.438;18.978;2024-03-06T13:14:30;16.25;;;10.15;;
59109;SDS011;44895;47.438;18.978;2024-03-06T13:17:34;18.17;;;9.73;;
59109;SDS011;44895;47.438;18.978;2024-03-06T13:20:38;14.68;;;9.73;;
59109;SDS011;44895;47.438;18.978;2024-03-06T13:23:42;16.17;;;11.25;;
59109;SDS011;44895;47.438;18.978;2024-03-06T13:26:46;22.55;;;13.52;;
59109;SDS011;44895;47.438;18.978;2024-03-06T13:29:50;15.82;;;10.15;;
59109;SDS011;44895;47.438;18.978;2024-03-06T13:32:54;16.73;;;11.07;;
59109;SDS011;44895;47.438;18.978;2024-03-06T13:35:58;18.88;;;12.40;;
59109;SDS011;44895;47.438;18.978;2024-03-06T13:39:02;18.90;;;12.93;;
59109;SDS011;44895;47.438;18.978;2024-03-06T13:42:05;16.30;;;11.70;;
59109;SDS011;44895;47.438;18.978;2024-03-06T13:45:09;19.15;;;13.23;;
59109;SDS011;44895;47.438;18.978;2024-03-06T13:48:17;18.77;;;13.50;;
59109;SDS011;44895;47.438;18.978;2024-03-06T13:51:22;16.25;;;11.50;;
59109;SDS011;44895;47.438;18.978;2024-03-06T13:54:26;18.30;;;12.20;;
59109;SDS011;44895;47.438;18.978;2024-03-06T13:57:30;18.55;;;11.00;;
59109;SDS011;44895;47.438;18.978;2024-03-06T14:00:37;23.00;;;11.05;;
59109;SDS011;44895;47.438;18.978;2024-03-06T14:03:41;20.90;;;11.95;;
59109;SDS011;44895;47.438;18.978;2024-03-06T14:06:44;17.88;;;12.63;;
59109;SDS011;44895;47.438;18.978;2024-03-06T14:09:51;17.60;;;12.55;;
59109;SDS011;44895;47.438;18.978;2024-03-06T14:12:55;20.07;;;12.83;;
59109;SDS011;44895;47.438;18.978;2024-03-06T14:16:00;20.33;;;13.57;;
59109;SDS011;44895;47.438;18.978;2024-03-06T14:19:03;21.55;;;15.13;;
59109;SDS011;44895;47.438;18.978;2024-03-06T14:22:08;26.83;;;16.50;;
59109;SDS011;44895;47.438;18.978;2024-03-06T14:25:12;21.23;;;14.35;;
59109;SDS011;44895;47.438;18.978;2024-03-06T14:28:16;20.58;;;15.82;;
59109;SDS011;44895;47.438;18.978;2024-03-06T14:31:20;16.50;;;10.68;;
59109;SDS011;44895;47.438;18.978;2024-03-06T14:34:23;15.30;;;7.75;;
59109;SDS011;44895;47.438;18.978;2024-03-06T14:37:27;20.65;;;10.93;;
59109;SDS011;44895;47.438;18.978;2024-03-06T14:40:31;15.70;;;10.98;;
59109;SDS011;44895;47.438;18.978;2024-03-06T14:43:37;14.82;;;11.02;;
59109;SDS011;44895;47.438;18.978;2024-03-06T14:46:44;15.50;;;11.13;;
59109;SDS011;44895;47.438;18.978;2024-03-06T14:49:47;21.08;;;11.75;;
59109;SDS011;44895;47.438;18.978;2024-03-06T14:52:51;15.48;;;11.70;;
59109;SDS011;44895;47.438;18.978;2024-03-06T14:55:55;16.23;;;11.68;;
59109;SDS011;44895;47.438;18.978;2024-03-06T14:59:00;21.33;;;11.27;;
59109;SDS011;44895;47.438;18.978;2024-03-06T15:02:03;22.92;;;13.52;;
59109;SDS011;44895;47.438;18.978;2024-03-06T15:05:07;24.13;;;13.38;;
59109;SDS011;44895;47.438;18.978;2024-03-06T15:08:11;20.95;;;13.40;;
59109;SDS011;44895;47.438;18.978;2024-03-06T15:11:15;19.50;;;13.25;;
59109;SDS011;44895;47.438;18.978;2024-03-06T15:14:19;18.45;;;13.52;;
59109;SDS011;44895;47.438;18.978;2024-03-06T15:17:24;23.45;;;13.98;;
59109;SDS011;44895;47.438;18.978;2024-03-06T15:20:30;18.25;;;13.15;;
59109;SDS011;44895;47.438;18.978;2024-03-06T15:23:36;28.50;;;12.77;;
59109;SDS011;44895;47.438;18.978;2024-03-06T15:26:40;18.25;;;10.40;;
59109;SDS011;44895;47.438;18.978;2024-03-06T15:29:44;15.52;;;11.05;;
59109;SDS011;44895;47.438;18.978;2024-03-06T15:32:48;18.98;;;12.13;;
59109;SDS011;44895;47.438;18.978;2024-03-06T15:35:52;17.23;;;11.60;;
59109;SDS011;44895;47.438;18.978;2024-03-06T15:38:56;20.42;;;11.00;;
59109;SDS011;44895;47.438;18.978;2024-03-06T15:42:00;16.63;;;11.15;;
59109;SDS011;44895;47.438;18.978;2024-03-06T15:45:04;19.63;;;12.18;;
59109;SDS011;44895;47.438;18.978;2024-03-06T15:48:08;15.95;;;10.38;;
59109;SDS011;44895;47.438;18.978;2024-03-06T15:51:16;18.98;;;11.93;;
59109;SDS011;44895;47.438;18.978;2024-03-06T15:54:20;17.92;;;10.32;;
59109;SDS011;44895;47.438;18.978;2024-03-06T15:57:25;17.85;;;11.85;;
59109;SDS011;44895;47.438;18.978;2024-03-06T16:00:28;14.98;;;10.88;;
59109;SDS011;44895;47.438;18.978;2024-03-06T16:03:32;22.85;;;11.32;;
59109;SDS011;44895;47.438;18.978;2024-03-06T16:06:36;16.33;;;11.02;;
59109;SDS011;44895;47.438;18.978;2024-03-06T16:09:40;20.10;;;10.40;;
59109;SDS011;44895;47.438;18.978;2024-03-06T16:12:44;15.55;;;9.80;;
59109;SDS011;44895;47.438;18.978;2024-03-06T16:15:48;18.15;;;11.75;;
59109;SDS011;44895;47.438;18.978;2024-03-06T16:18:53;15.40;;;10.75;;
59109;SDS011;44895;47.438;18.978;2024-03-06T16:21:56;20.38;;;11.25;;
59109;SDS011;44895;47.438;18.978;2024-03-06T16:25:00;15.30;;;10.27;;
59109;SDS011;44895;47.438;18.978;2024-03-06T16:28:05;17.52;;;12.02;;
59109;SDS011;44895;47.438;18.978;2024-03-06T16:31:10;17.45;;;10.98;;
59109;SDS011;44895;47.438;18.978;2024-03-06T16:34:14;16.58;;;11.10;;
59109;SDS011;44895;47.438;18.978;2024-03-06T16:37:19;16.85;;;11.43;;
59109;SDS011;44895;47.438;18.978;2024-03-06T16:40:23;15.02;;;11.65;;
59109;SDS011;44895;47.438;18.978;2024-03-06T16:43:27;19.63;;;12.95;;
59109;SDS011;44895;47.438;18.978;2024-03-06T16:46:31;19.33;;;13.35;;
59109;SDS011;44895;47.438;18.978;2024-03-06T16:49:35;22.45;;;16.33;;
59109;SDS011;44895;47.438;18.978;2024-03-06T16:52:38;17.63;;;11.45;;
59109;SDS011;44895;47.438;18.978;2024-03-06T16:55:42;19.83;;;11.57;;
59109;SDS011;44895;47.438;18.978;2024-03-06T16:58:46;18.13;;;12.73;;
59109;SDS011;44895;47.438;18.978;2024-03-06T17:01:49;26.60;;;12.13;;
59109;SDS011;44895;47.438;18.978;2024-03-06T17:04:54;17.98;;;11.65;;
59109;SDS011;44895;47.438;18.978;2024-03-06T17:07:58;20.23;;;12.80;;
59109;SDS011;44895;47.438;18.978;2024-03-06T17:11:02;17.10;;;12.38;;
59109;SDS011;44895;47.438;18.978;2024-03-06T17:14:06;22.33;;;12.52;;
59109;SDS011;44895;47.438;18.978;2024-03-06T17:17:09;18.55;;;14.10;;
59109;SDS011;44895;47.438;18.978;2024-03-06T17:20:13;17.00;;;11.48;;
59109;SDS011;44895;47.438;18.978;2024-03-06T17:23:17;20.58;;;12.80;;
59109;SDS011;44895;47.438;18.978;2024-03-06T17:26:21;18.02;;;13.43;;
59109;SDS011;44895;47.438;18.978;2024-03-06T17:29:25;18.77;;;13.52;;
59109;SDS011;44895;47.438;18.978;2024-03-06T17:32:29;21.90;;;13.20;;
59109;SDS011;44895;47.438;18.978;2024-03-06T17:35:33;17.15;;;11.52;;
59109;SDS011;44895;47.438;18.978;2024-03-06T17:38:37;20.92;;;11.98;;
59109;SDS011;44895;47.438;18.978;2024-03-06T17:41:45;16.85;;;12.05;;
59109;SDS011;44895;47.438;18.978;2024-03-06T17:44:49;14.27;;;9.40;;
59109;SDS011;44895;47.438;18.978;2024-03-06T17:47:53;20.73;;;11.32;;
59109;SDS011;44895;47.438;18.978;2024-03-06T17:50:57;15.88;;;11.57;;
59109;SDS011;44895;47.438;18.978;2024-03-06T17:54:01;17.75;;;10.90;;
59109;SDS011;44895;47.438;18.978;2024-03-06T17:57:05;15.40;;;9.07;;
59109;SDS011;44895;47.438;18.978;2024-03-06T18:00:09;13.35;;;9.70;;
59109;SDS011;44895;47.438;18.978;2024-03-06T18:03:14;12.50;;;7.78;;